sensor_id;sensor_type;location;lat;lon;timestamp;temperature;humidity
45537;DHT22;31262;51.978;5.924;2022-12-11T00:00:43;6.90;65.50
45537;DHT22;31262;51.978;5.924;2022-12-11T00:03:08;6.90;65.70
45537;DHT22;31262;51.978;5.924;2022-12-11T00:05:37;6.90;65.70
45537;DHT22;31262;51.978;5.924;2022-12-11T00:08:02;6.90;65.80
45537;DHT22;31262;51.978;5.924;2022-12-11T00:10:28;7.00;65.70
45537;DHT22;31262;51.978;5.924;2022-12-11T00:12:53;7.00;65.80
45537;DHT22;31262;51.978;5.924;2022-12-11T00:15:19;6.90;65.80
45537;DHT22;31262;51.978;5.924;2022-12-11T00:17:44;6.90;66.00
45537;DHT22;31262;51.978;5.924;2022-12-11T00:20:10;6.90;66.80
45537;DHT22;31262;51.978;5.924;2022-12-11T00:22:36;6.90;66.30
45537;DHT22;31262;51.978;5.924;2022-12-11T00:25:01;6.90;66.30
45537;DHT22;31262;51.978;5.924;2022-12-11T00:27:27;6.90;66.30
45537;DHT22;31262;51.978;5.924;2022-12-11T00:29:52;7.10;66.40
45537;DHT22;31262;51.978;5.924;2022-12-11T00:32:18;6.90;66.30
45537;DHT22;31262;51.978;5.924;2022-12-11T00:34:43;6.90;66.30
45537;DHT22;31262;51.978;5.924;2022-12-11T00:37:09;6.90;66.40
45537;DHT22;31262;51.978;5.924;2022-12-11T00:39:35;6.90;66.50
45537;DHT22;31262;51.978;5.924;2022-12-11T00:42:01;6.90;66.50
45537;DHT22;31262;51.978;5.924;2022-12-11T00:44:26;6.80;66.60
45537;DHT22;31262;51.978;5.924;2022-12-11T00:46:52;6.80;66.60
45537;DHT22;31262;51.978;5.924;2022-12-11T00:49:17;6.80;66.70
45537;DHT22;31262;51.978;5.924;2022-12-11T00:51:43;6.70;66.80
45537;DHT22;31262;51.978;5.924;2022-12-11T00:54:08;6.70;67.10
45537;DHT22;31262;51.978;5.924;2022-12-11T00:56:34;6.70;67.10
45537;DHT22;31262;51.978;5.924;2022-12-11T00:58:59;6.70;67.20
45537;DHT22;31262;51.978;5.924;2022-12-11T01:01:25;6.80;67.20
45537;DHT22;31262;51.978;5.924;2022-12-11T01:03:51;6.70;67.20
45537;DHT22;31262;51.978;5.924;2022-12-11T01:06:18;6.80;67.40
45537;DHT22;31262;51.978;5.924;2022-12-11T01:08:44;6.70;67.30
45537;DHT22;31262;51.978;5.924;2022-12-11T01:11:12;6.70;67.30
45537;DHT22;31262;51.978;5.924;2022-12-11T01:13:38;6.60;67.20
45537;DHT22;31262;51.978;5.924;2022-12-11T01:16:13;6.70;67.30
45537;DHT22;31262;51.978;5.924;2022-12-11T01:18:39;6.70;67.90
45537;DHT22;31262;51.978;5.924;2022-12-11T01:21:09;6.70;67.30
45537;DHT22;31262;51.978;5.924;2022-12-11T01:23:35;6.70;67.50
45537;DHT22;31262;51.978;5.924;2022-12-11T01:26:19;6.70;67.60
45537;DHT22;31262;51.978;5.924;2022-12-11T01:28:47;6.70;67.70
45537;DHT22;31262;51.978;5.924;2022-12-11T01:31:14;6.60;67.80
45537;DHT22;31262;51.978;5.924;2022-12-11T01:33:40;6.60;67.90
45537;DHT22;31262;51.978;5.924;2022-12-11T01:36:10;6.60;68.00
45537;DHT22;31262;51.978;5.924;2022-12-11T01:38:36;6.60;68.00
45537;DHT22;31262;51.978;5.924;2022-12-11T01:41:02;6.70;68.10
45537;DHT22;31262;51.978;5.924;2022-12-11T01:43:28;6.70;67.90
45537;DHT22;31262;51.978;5.924;2022-12-11T01:45:54;6.80;67.80
45537;DHT22;31262;51.978;5.924;2022-12-11T01:48:20;6.90;67.90
45537;DHT22;31262;51.978;5.924;2022-12-11T01:50:51;6.80;67.90
45537;DHT22;31262;51.978;5.924;2022-12-11T01:53:22;6.80;67.90
45537;DHT22;31262;51.978;5.924;2022-12-11T01:55:48;6.90;67.90
45537;DHT22;31262;51.978;5.924;2022-12-11T01:58:15;6.80;67.80
45537;DHT22;31262;51.978;5.924;2022-12-11T02:00:40;6.80;67.80
45537;DHT22;31262;51.978;5.924;2022-12-11T02:03:06;6.70;67.90
45537;DHT22;31262;51.978;5.924;2022-12-11T02:05:32;6.80;67.90
45537;DHT22;31262;51.978;5.924;2022-12-11T02:07:58;6.70;68.00
45537;DHT22;31262;51.978;5.924;2022-12-11T02:10:27;6.70;68.10
45537;DHT22;31262;51.978;5.924;2022-12-11T02:12:56;6.60;68.30
45537;DHT22;31262;51.978;5.924;2022-12-11T02:15:34;6.50;68.50
45537;DHT22;31262;51.978;5.924;2022-12-11T02:25:52;6.50;68.90
45537;DHT22;31262;51.978;5.924;2022-12-11T02:28:20;6.50;68.90
45537;DHT22;31262;51.978;5.924;2022-12-11T02:30:53;6.50;69.10
45537;DHT22;31262;51.978;5.924;2022-12-11T02:33:21;6.40;69.20
45537;DHT22;31262;51.978;5.924;2022-12-11T02:35:47;6.30;69.30
45537;DHT22;31262;51.978;5.924;2022-12-11T02:38:18;6.30;69.50
45537;DHT22;31262;51.978;5.924;2022-12-11T02:40:45;6.30;69.50
45537;DHT22;31262;51.978;5.924;2022-12-11T02:43:13;6.40;69.60
45537;DHT22;31262;51.978;5.924;2022-12-11T02:45:40;6.40;69.50
45537;DHT22;31262;51.978;5.924;2022-12-11T02:48:06;6.40;69.50
45537;DHT22;31262;51.978;5.924;2022-12-11T02:50:35;6.30;69.70
45537;DHT22;31262;51.978;5.924;2022-12-11T02:53:01;6.30;69.90
45537;DHT22;31262;51.978;5.924;2022-12-11T02:55:28;6.30;70.20
45537;DHT22;31262;51.978;5.924;2022-12-11T02:58:02;6.20;70.40
45537;DHT22;31262;51.978;5.924;2022-12-11T03:00:28;6.10;70.50
45537;DHT22;31262;51.978;5.924;2022-12-11T03:02:53;6.10;70.60
45537;DHT22;31262;51.978;5.924;2022-12-11T03:05:19;6.10;70.60
45537;DHT22;31262;51.978;5.924;2022-12-11T03:07:45;6.10;70.70
45537;DHT22;31262;51.978;5.924;2022-12-11T03:10:11;6.10;70.70
45537;DHT22;31262;51.978;5.924;2022-12-11T03:12:39;6.10;70.80
45537;DHT22;31262;51.978;5.924;2022-12-11T03:15:07;6.20;70.70
45537;DHT22;31262;51.978;5.924;2022-12-11T03:20:02;6.10;70.80
45537;DHT22;31262;51.978;5.924;2022-12-11T03:22:36;6.10;71.00
45537;DHT22;31262;51.978;5.924;2022-12-11T03:25:05;6.10;71.00
45537;DHT22;31262;51.978;5.924;2022-12-11T03:27:41;6.10;71.00
45537;DHT22;31262;51.978;5.924;2022-12-11T03:30:09;6.10;71.20
45537;DHT22;31262;51.978;5.924;2022-12-11T03:32:40;6.00;71.30
45537;DHT22;31262;51.978;5.924;2022-12-11T03:35:19;6.00;71.40
45537;DHT22;31262;51.978;5.924;2022-12-11T03:37:45;6.00;71.40
45537;DHT22;31262;51.978;5.924;2022-12-11T03:40:13;6.00;71.30
45537;DHT22;31262;51.978;5.924;2022-12-11T03:42:40;6.00;71.30
45537;DHT22;31262;51.978;5.924;2022-12-11T03:45:08;6.10;71.30
45537;DHT22;31262;51.978;5.924;2022-12-11T03:47:33;6.10;71.30
45537;DHT22;31262;51.978;5.924;2022-12-11T03:50:00;6.20;71.20
45537;DHT22;31262;51.978;5.924;2022-12-11T03:52:26;6.20;71.10
45537;DHT22;31262;51.978;5.924;2022-12-11T03:54:53;6.20;71.00
45537;DHT22;31262;51.978;5.924;2022-12-11T03:57:20;6.20;71.00
45537;DHT22;31262;51.978;5.924;2022-12-11T03:59:47;6.30;71.00
45537;DHT22;31262;51.978;5.924;2022-12-11T04:02:12;6.30;70.90
45537;DHT22;31262;51.978;5.924;2022-12-11T04:04:38;6.30;70.80
45537;DHT22;31262;51.978;5.924;2022-12-11T04:07:04;6.30;70.70
45537;DHT22;31262;51.978;5.924;2022-12-11T04:09:29;6.30;70.70
45537;DHT22;31262;51.978;5.924;2022-12-11T04:11:55;6.40;70.70
45537;DHT22;31262;51.978;5.924;2022-12-11T04:14:20;6.30;70.50
45537;DHT22;31262;51.978;5.924;2022-12-11T04:17:05;6.30;70.50
45537;DHT22;31262;51.978;5.924;2022-12-11T04:19:30;6.30;70.50
45537;DHT22;31262;51.978;5.924;2022-12-11T04:22:15;6.30;70.60
45537;DHT22;31262;51.978;5.924;2022-12-11T04:25:00;6.40;70.60
45537;DHT22;31262;51.978;5.924;2022-12-11T04:27:25;6.40;70.60
45537;DHT22;31262;51.978;5.924;2022-12-11T04:30:12;6.40;70.60
45537;DHT22;31262;51.978;5.924;2022-12-11T04:32:38;6.40;70.30
45537;DHT22;31262;51.978;5.924;2022-12-11T04:35:05;6.30;70.40
45537;DHT22;31262;51.978;5.924;2022-12-11T04:37:30;6.30;70.50
45537;DHT22;31262;51.978;5.924;2022-12-11T04:39:56;6.30;70.50
45537;DHT22;31262;51.978;5.924;2022-12-11T04:42:21;6.30;70.50
45537;DHT22;31262;51.978;5.924;2022-12-11T04:44:47;6.40;70.50
45537;DHT22;31262;51.978;5.924;2022-12-11T04:47:12;6.40;70.20
45537;DHT22;31262;51.978;5.924;2022-12-11T04:49:38;6.50;70.40
45537;DHT22;31262;51.978;5.924;2022-12-11T04:52:04;6.50;70.30
45537;DHT22;31262;51.978;5.924;2022-12-11T04:54:30;6.50;70.20
45537;DHT22;31262;51.978;5.924;2022-12-11T04:56:56;6.60;70.10
45537;DHT22;31262;51.978;5.924;2022-12-11T04:59:22;6.50;70.00
45537;DHT22;31262;51.978;5.924;2022-12-11T05:01:47;6.60;70.00
45537;DHT22;31262;51.978;5.924;2022-12-11T05:04:13;6.60;69.80
45537;DHT22;31262;51.978;5.924;2022-12-11T05:06:38;6.60;69.50
45537;DHT22;31262;51.978;5.924;2022-12-11T05:09:04;6.50;69.60
45537;DHT22;31262;51.978;5.924;2022-12-11T05:11:29;6.50;69.70
45537;DHT22;31262;51.978;5.924;2022-12-11T05:13:55;6.50;69.70
45537;DHT22;31262;51.978;5.924;2022-12-11T05:16:20;6.60;69.70
45537;DHT22;31262;51.978;5.924;2022-12-11T05:18:46;6.60;69.70
45537;DHT22;31262;51.978;5.924;2022-12-11T05:21:14;6.60;69.60
45537;DHT22;31262;51.978;5.924;2022-12-11T05:23:40;6.70;69.60
45537;DHT22;31262;51.978;5.924;2022-12-11T05:26:07;6.70;69.50
45537;DHT22;31262;51.978;5.924;2022-12-11T05:28:34;6.70;69.30
45537;DHT22;31262;51.978;5.924;2022-12-11T05:31:04;6.60;69.20
45537;DHT22;31262;51.978;5.924;2022-12-11T05:33:30;6.50;69.20
45537;DHT22;31262;51.978;5.924;2022-12-11T05:35:56;6.40;68.70
45537;DHT22;31262;51.978;5.924;2022-12-11T05:38:21;6.30;68.60
45537;DHT22;31262;51.978;5.924;2022-12-11T05:41:00;6.30;68.90
45537;DHT22;31262;51.978;5.924;2022-12-11T05:43:26;6.30;68.90
45537;DHT22;31262;51.978;5.924;2022-12-11T05:45:52;6.30;69.10
45537;DHT22;31262;51.978;5.924;2022-12-11T05:48:18;6.30;69.20
45537;DHT22;31262;51.978;5.924;2022-12-11T05:50:44;6.40;69.20
45537;DHT22;31262;51.978;5.924;2022-12-11T05:53:10;6.40;69.20
45537;DHT22;31262;51.978;5.924;2022-12-11T05:55:35;6.30;69.00
45537;DHT22;31262;51.978;5.924;2022-12-11T05:58:01;6.30;69.10
45537;DHT22;31262;51.978;5.924;2022-12-11T06:00:26;6.30;69.30
45537;DHT22;31262;51.978;5.924;2022-12-11T06:02:52;6.30;69.30
45537;DHT22;31262;51.978;5.924;2022-12-11T06:05:17;6.30;69.40
45537;DHT22;31262;51.978;5.924;2022-12-11T06:07:43;6.30;69.50
45537;DHT22;31262;51.978;5.924;2022-12-11T06:10:08;6.30;69.60
45537;DHT22;31262;51.978;5.924;2022-12-11T06:12:34;6.30;69.60
45537;DHT22;31262;51.978;5.924;2022-12-11T06:14:59;6.20;69.50
45537;DHT22;31262;51.978;5.924;2022-12-11T06:17:25;6.30;69.30
45537;DHT22;31262;51.978;5.924;2022-12-11T06:19:50;6.20;69.20
45537;DHT22;31262;51.978;5.924;2022-12-11T06:22:16;6.10;69.10
45537;DHT22;31262;51.978;5.924;2022-12-11T06:24:41;6.10;69.20
45537;DHT22;31262;51.978;5.924;2022-12-11T06:27:07;6.10;69.20
45537;DHT22;31262;51.978;5.924;2022-12-11T06:29:33;6.00;69.10
45537;DHT22;31262;51.978;5.924;2022-12-11T06:31:58;5.90;69.10
45537;DHT22;31262;51.978;5.924;2022-12-11T06:34:24;5.90;69.40
45537;DHT22;31262;51.978;5.924;2022-12-11T06:36:49;5.90;69.70
45537;DHT22;31262;51.978;5.924;2022-12-11T06:39:15;5.90;69.80
45537;DHT22;31262;51.978;5.924;2022-12-11T06:41:40;5.90;69.80
45537;DHT22;31262;51.978;5.924;2022-12-11T06:44:06;5.90;69.80
45537;DHT22;31262;51.978;5.924;2022-12-11T06:46:31;5.90;69.90
45537;DHT22;31262;51.978;5.924;2022-12-11T06:48:57;5.90;69.80
45537;DHT22;31262;51.978;5.924;2022-12-11T06:51:22;6.00;69.80
45537;DHT22;31262;51.978;5.924;2022-12-11T06:53:51;6.10;69.60
45537;DHT22;31262;51.978;5.924;2022-12-11T06:56:17;6.00;69.40
45537;DHT22;31262;51.978;5.924;2022-12-11T06:58:43;6.00;69.30
45537;DHT22;31262;51.978;5.924;2022-12-11T07:01:27;6.00;69.20
45537;DHT22;31262;51.978;5.924;2022-12-11T07:03:54;6.00;69.10
45537;DHT22;31262;51.978;5.924;2022-12-11T07:06:20;6.00;69.20
45537;DHT22;31262;51.978;5.924;2022-12-11T07:08:46;6.00;69.20
45537;DHT22;31262;51.978;5.924;2022-12-11T07:11:12;6.00;69.20
45537;DHT22;31262;51.978;5.924;2022-12-11T07:13:38;6.00;69.10
45537;DHT22;31262;51.978;5.924;2022-12-11T07:16:04;6.00;69.20
45537;DHT22;31262;51.978;5.924;2022-12-11T07:18:35;5.90;69.20
45537;DHT22;31262;51.978;5.924;2022-12-11T07:21:01;5.90;69.50
45537;DHT22;31262;51.978;5.924;2022-12-11T07:23:27;5.60;69.70
45537;DHT22;31262;51.978;5.924;2022-12-11T07:25:53;5.50;69.80
45537;DHT22;31262;51.978;5.924;2022-12-11T07:28:18;5.50;70.10
45537;DHT22;31262;51.978;5.924;2022-12-11T07:30:44;5.50;70.20
45537;DHT22;31262;51.978;5.924;2022-12-11T07:33:09;5.60;70.10
45537;DHT22;31262;51.978;5.924;2022-12-11T07:35:35;5.60;70.20
45537;DHT22;31262;51.978;5.924;2022-12-11T07:38:00;5.50;70.00
45537;DHT22;31262;51.978;5.924;2022-12-11T07:40:26;5.50;69.90
45537;DHT22;31262;51.978;5.924;2022-12-11T07:42:52;5.50;70.60
45537;DHT22;31262;51.978;5.924;2022-12-11T07:45:17;5.60;70.00
45537;DHT22;31262;51.978;5.924;2022-12-11T07:47:43;5.60;69.80
45537;DHT22;31262;51.978;5.924;2022-12-11T07:50:08;5.70;69.70
45537;DHT22;31262;51.978;5.924;2022-12-11T07:52:34;5.60;69.50
45537;DHT22;31262;51.978;5.924;2022-12-11T07:54:59;5.60;69.50
45537;DHT22;31262;51.978;5.924;2022-12-11T07:57:26;5.70;69.50
45537;DHT22;31262;51.978;5.924;2022-12-11T07:59:51;5.70;69.40
45537;DHT22;31262;51.978;5.924;2022-12-11T08:02:17;5.70;69.40
45537;DHT22;31262;51.978;5.924;2022-12-11T08:04:42;5.70;69.30
45537;DHT22;31262;51.978;5.924;2022-12-11T08:07:08;5.70;69.20
45537;DHT22;31262;51.978;5.924;2022-12-11T08:09:33;5.70;68.90
45537;DHT22;31262;51.978;5.924;2022-12-11T08:11:59;5.70;69.00
45537;DHT22;31262;51.978;5.924;2022-12-11T08:14:24;5.60;69.00
45537;DHT22;31262;51.978;5.924;2022-12-11T08:16:50;5.70;69.10
45537;DHT22;31262;51.978;5.924;2022-12-11T08:19:15;5.60;68.90
45537;DHT22;31262;51.978;5.924;2022-12-11T08:21:42;5.60;69.00
45537;DHT22;31262;51.978;5.924;2022-12-11T08:24:08;5.60;69.00
45537;DHT22;31262;51.978;5.924;2022-12-11T08:26:33;5.70;69.00
45537;DHT22;31262;51.978;5.924;2022-12-11T08:28:59;5.60;68.80
45537;DHT22;31262;51.978;5.924;2022-12-11T08:31:25;5.60;68.70
45537;DHT22;31262;51.978;5.924;2022-12-11T08:33:53;5.60;68.80
45537;DHT22;31262;51.978;5.924;2022-12-11T08:36:20;5.60;69.00
45537;DHT22;31262;51.978;5.924;2022-12-11T08:38:46;5.60;68.90
45537;DHT22;31262;51.978;5.924;2022-12-11T08:41:15;5.70;68.90
45537;DHT22;31262;51.978;5.924;2022-12-11T08:43:41;5.50;68.80
45537;DHT22;31262;51.978;5.924;2022-12-11T08:46:07;5.50;68.90
45537;DHT22;31262;51.978;5.924;2022-12-11T08:48:33;5.50;68.90
45537;DHT22;31262;51.978;5.924;2022-12-11T08:50:59;5.50;69.00
45537;DHT22;31262;51.978;5.924;2022-12-11T08:53:26;5.60;69.00
45537;DHT22;31262;51.978;5.924;2022-12-11T08:55:52;5.60;69.00
45537;DHT22;31262;51.978;5.924;2022-12-11T08:58:17;5.60;68.90
45537;DHT22;31262;51.978;5.924;2022-12-11T09:00:43;5.40;69.00
45537;DHT22;31262;51.978;5.924;2022-12-11T09:03:08;5.30;69.10
45537;DHT22;31262;51.978;5.924;2022-12-11T09:05:34;5.40;69.30
45537;DHT22;31262;51.978;5.924;2022-12-11T09:08:02;5.30;69.30
45537;DHT22;31262;51.978;5.924;2022-12-11T09:10:27;5.30;69.30
45537;DHT22;31262;51.978;5.924;2022-12-11T09:12:53;5.30;69.20
45537;DHT22;31262;51.978;5.924;2022-12-11T09:15:18;5.40;69.10
45537;DHT22;31262;51.978;5.924;2022-12-11T09:17:44;5.40;69.00
45537;DHT22;31262;51.978;5.924;2022-12-11T09:20:09;5.60;69.00
45537;DHT22;31262;51.978;5.924;2022-12-11T09:22:35;5.60;68.90
45537;DHT22;31262;51.978;5.924;2022-12-11T09:25:00;5.80;68.90
45537;DHT22;31262;51.978;5.924;2022-12-11T09:27:26;5.60;68.60
45537;DHT22;31262;51.978;5.924;2022-12-11T09:29:52;5.60;68.50
45537;DHT22;31262;51.978;5.924;2022-12-11T09:32:17;5.70;69.30
45537;DHT22;31262;51.978;5.924;2022-12-11T09:34:43;5.70;68.70
45537;DHT22;31262;51.978;5.924;2022-12-11T09:37:08;5.70;68.70
45537;DHT22;31262;51.978;5.924;2022-12-11T09:39:34;5.80;68.70
45537;DHT22;31262;51.978;5.924;2022-12-11T09:42:12;5.90;68.70
45537;DHT22;31262;51.978;5.924;2022-12-11T09:44:45;5.90;68.70
45537;DHT22;31262;51.978;5.924;2022-12-11T09:47:32;5.90;68.70
45537;DHT22;31262;51.978;5.924;2022-12-11T09:52:37;6.00;68.60
45537;DHT22;31262;51.978;5.924;2022-12-11T09:55:12;6.00;68.50
45537;DHT22;31262;51.978;5.924;2022-12-11T10:02:58;5.90;67.90
45537;DHT22;31262;51.978;5.924;2022-12-11T10:05:34;5.90;68.00
45537;DHT22;31262;51.978;5.924;2022-12-11T10:08:05;5.80;67.90
45537;DHT22;31262;51.978;5.924;2022-12-11T10:10:38;5.80;68.10
45537;DHT22;31262;51.978;5.924;2022-12-11T10:18:16;5.80;68.20
45537;DHT22;31262;51.978;5.924;2022-12-11T10:20:42;5.80;68.30
45537;DHT22;31262;51.978;5.924;2022-12-11T10:23:19;5.70;68.20
45537;DHT22;31262;51.978;5.924;2022-12-11T10:25:48;5.70;68.10
45537;DHT22;31262;51.978;5.924;2022-12-11T10:28:16;5.70;67.80
45537;DHT22;31262;51.978;5.924;2022-12-11T10:30:47;5.80;68.00
45537;DHT22;31262;51.978;5.924;2022-12-11T10:33:17;5.70;68.00
45537;DHT22;31262;51.978;5.924;2022-12-11T10:35:55;5.80;68.00
45537;DHT22;31262;51.978;5.924;2022-12-11T10:38:35;5.80;67.90
45537;DHT22;31262;51.978;5.924;2022-12-11T10:41:03;5.80;67.80
45537;DHT22;31262;51.978;5.924;2022-12-11T10:46:04;5.70;67.90
45537;DHT22;31262;51.978;5.924;2022-12-11T10:48:30;5.80;68.10
45537;DHT22;31262;51.978;5.924;2022-12-11T10:50:57;5.80;68.20
45537;DHT22;31262;51.978;5.924;2022-12-11T10:53:24;5.80;68.30
45537;DHT22;31262;51.978;5.924;2022-12-11T10:55:50;5.80;68.30
45537;DHT22;31262;51.978;5.924;2022-12-11T10:58:20;5.80;68.30
45537;DHT22;31262;51.978;5.924;2022-12-11T11:00:48;5.80;68.30
45537;DHT22;31262;51.978;5.924;2022-12-11T11:03:23;5.90;68.30
45537;DHT22;31262;51.978;5.924;2022-12-11T11:06:00;5.90;68.30
45537;DHT22;31262;51.978;5.924;2022-12-11T11:08:26;5.90;68.30
45537;DHT22;31262;51.978;5.924;2022-12-11T11:10:55;6.10;68.20
45537;DHT22;31262;51.978;5.924;2022-12-11T11:13:22;6.20;68.00
45537;DHT22;31262;51.978;5.924;2022-12-11T11:15:49;6.30;67.80
45537;DHT22;31262;51.978;5.924;2022-12-11T11:18:18;6.50;67.70
45537;DHT22;31262;51.978;5.924;2022-12-11T11:20:47;6.70;67.30
45537;DHT22;31262;51.978;5.924;2022-12-11T11:23:13;6.90;67.10
45537;DHT22;31262;51.978;5.924;2022-12-11T11:25:46;7.10;66.80
45537;DHT22;31262;51.978;5.924;2022-12-11T11:28:20;7.30;66.00
45537;DHT22;31262;51.978;5.924;2022-12-11T11:33:31;7.60;64.70
45537;DHT22;31262;51.978;5.924;2022-12-11T11:36:02;7.80;65.20
45537;DHT22;31262;51.978;5.924;2022-12-11T11:38:31;7.90;64.30
45537;DHT22;31262;51.978;5.924;2022-12-11T11:43:46;8.30;63.80
45537;DHT22;31262;51.978;5.924;2022-12-11T11:46:15;8.40;63.00
45537;DHT22;31262;51.978;5.924;2022-12-11T11:51:31;8.60;62.30
45537;DHT22;31262;51.978;5.924;2022-12-11T11:53:59;8.70;61.90
45537;DHT22;31262;51.978;5.924;2022-12-11T11:56:32;8.90;61.70
45537;DHT22;31262;51.978;5.924;2022-12-11T12:01:27;9.00;60.70
45537;DHT22;31262;51.978;5.924;2022-12-11T12:03:53;9.00;60.70
45537;DHT22;31262;51.978;5.924;2022-12-11T12:09:13;9.20;60.90
45537;DHT22;31262;51.978;5.924;2022-12-11T12:14:29;9.60;60.90
45537;DHT22;31262;51.978;5.924;2022-12-11T12:22:00;9.80;60.10
45537;DHT22;31262;51.978;5.924;2022-12-11T12:35:02;9.50;58.60
45537;DHT22;31262;51.978;5.924;2022-12-11T12:47:38;9.90;58.90
45537;DHT22;31262;51.978;5.924;2022-12-11T12:50:09;10.00;58.70
45537;DHT22;31262;51.978;5.924;2022-12-11T12:52:36;10.10;58.40
45537;DHT22;31262;51.978;5.924;2022-12-11T12:55:15;10.30;58.60
45537;DHT22;31262;51.978;5.924;2022-12-11T12:58:00;10.30;58.10
45537;DHT22;31262;51.978;5.924;2022-12-11T13:00:30;10.20;57.80
45537;DHT22;31262;51.978;5.924;2022-12-11T13:02:57;10.20;58.00
45537;DHT22;31262;51.978;5.924;2022-12-11T13:05:24;10.20;58.00
45537;DHT22;31262;51.978;5.924;2022-12-11T13:07:58;10.30;58.00
45537;DHT22;31262;51.978;5.924;2022-12-11T13:10:25;10.40;57.50
45537;DHT22;31262;51.978;5.924;2022-12-11T13:12:51;10.40;57.50
45537;DHT22;31262;51.978;5.924;2022-12-11T13:15:28;10.40;56.80
45537;DHT22;31262;51.978;5.924;2022-12-11T13:17:55;10.40;56.60
45537;DHT22;31262;51.978;5.924;2022-12-11T13:20:22;10.30;56.40
45537;DHT22;31262;51.978;5.924;2022-12-11T13:25:27;10.40;57.20
45537;DHT22;31262;51.978;5.924;2022-12-11T13:28:02;10.40;57.30
45537;DHT22;31262;51.978;5.924;2022-12-11T13:30:28;10.40;57.30
45537;DHT22;31262;51.978;5.924;2022-12-11T13:35:19;10.50;57.30
45537;DHT22;31262;51.978;5.924;2022-12-11T13:37:45;10.50;56.60
45537;DHT22;31262;51.978;5.924;2022-12-11T13:42:42;10.40;56.70
45537;DHT22;31262;51.978;5.924;2022-12-11T13:45:16;10.40;56.20
45537;DHT22;31262;51.978;5.924;2022-12-11T13:47:42;10.40;56.50
45537;DHT22;31262;51.978;5.924;2022-12-11T13:50:19;10.40;56.60
45537;DHT22;31262;51.978;5.924;2022-12-11T13:52:53;10.40;56.50
45537;DHT22;31262;51.978;5.924;2022-12-11T13:55:20;10.30;56.70
45537;DHT22;31262;51.978;5.924;2022-12-11T13:57:47;10.30;56.70
45537;DHT22;31262;51.978;5.924;2022-12-11T14:00:18;10.20;57.00
45537;DHT22;31262;51.978;5.924;2022-12-11T14:02:43;10.20;57.00
45537;DHT22;31262;51.978;5.924;2022-12-11T14:05:09;10.00;57.00
45537;DHT22;31262;51.978;5.924;2022-12-11T14:07:37;10.00;57.30
45537;DHT22;31262;51.978;5.924;2022-12-11T14:10:22;10.00;57.20
45537;DHT22;31262;51.978;5.924;2022-12-11T14:15:14;9.90;57.40
45537;DHT22;31262;51.978;5.924;2022-12-11T14:17:40;10.00;57.30
45537;DHT22;31262;51.978;5.924;2022-12-11T14:20:10;10.00;57.20
45537;DHT22;31262;51.978;5.924;2022-12-11T14:22:39;9.90;56.90
45537;DHT22;31262;51.978;5.924;2022-12-11T14:25:22;9.90;57.00
45537;DHT22;31262;51.978;5.924;2022-12-11T14:27:53;9.90;57.10
45537;DHT22;31262;51.978;5.924;2022-12-11T14:30:29;9.90;57.30
45537;DHT22;31262;51.978;5.924;2022-12-11T14:32:57;9.90;57.50
45537;DHT22;31262;51.978;5.924;2022-12-11T14:35:24;10.00;57.50
45537;DHT22;31262;51.978;5.924;2022-12-11T14:37:51;10.00;57.50
45537;DHT22;31262;51.978;5.924;2022-12-11T14:40:21;10.10;57.70
45537;DHT22;31262;51.978;5.924;2022-12-11T14:42:50;10.10;57.70
45537;DHT22;31262;51.978;5.924;2022-12-11T14:45:38;10.10;57.80
45537;DHT22;31262;51.978;5.924;2022-12-11T14:48:07;10.10;57.40
45537;DHT22;31262;51.978;5.924;2022-12-11T14:53:01;10.10;57.50
45537;DHT22;31262;51.978;5.924;2022-12-11T14:55:29;10.10;57.70
45537;DHT22;31262;51.978;5.924;2022-12-11T14:57:56;10.10;57.80
45537;DHT22;31262;51.978;5.924;2022-12-11T15:00:24;10.10;57.30
45537;DHT22;31262;51.978;5.924;2022-12-11T15:03:00;10.00;57.20
45537;DHT22;31262;51.978;5.924;2022-12-11T15:05:26;9.90;57.00
45537;DHT22;31262;51.978;5.924;2022-12-11T15:12:50;9.70;57.50
45537;DHT22;31262;51.978;5.924;2022-12-11T15:15:16;9.70;57.60
45537;DHT22;31262;51.978;5.924;2022-12-11T15:17:42;9.70;57.80
45537;DHT22;31262;51.978;5.924;2022-12-11T15:20:08;9.80;57.70
45537;DHT22;31262;51.978;5.924;2022-12-11T15:22:35;9.80;57.30
45537;DHT22;31262;51.978;5.924;2022-12-11T15:25:01;9.70;57.40
45537;DHT22;31262;51.978;5.924;2022-12-11T15:27:32;9.70;57.40
45537;DHT22;31262;51.978;5.924;2022-12-11T15:30:19;9.60;57.10
45537;DHT22;31262;51.978;5.924;2022-12-11T15:35:35;9.60;57.20
45537;DHT22;31262;51.978;5.924;2022-12-11T15:38:00;9.60;57.60
45537;DHT22;31262;51.978;5.924;2022-12-11T15:40:26;9.60;57.80
45537;DHT22;31262;51.978;5.924;2022-12-11T15:42:52;9.70;57.90
45537;DHT22;31262;51.978;5.924;2022-12-11T15:45:20;9.70;57.60
45537;DHT22;31262;51.978;5.924;2022-12-11T15:47:46;9.70;57.70
45537;DHT22;31262;51.978;5.924;2022-12-11T15:50:16;9.70;57.80
45537;DHT22;31262;51.978;5.924;2022-12-11T15:52:42;9.70;57.40
45537;DHT22;31262;51.978;5.924;2022-12-11T15:55:08;9.70;57.40
45537;DHT22;31262;51.978;5.924;2022-12-11T15:57:34;9.60;57.10
45537;DHT22;31262;51.978;5.924;2022-12-11T15:59:59;9.60;57.00
45537;DHT22;31262;51.978;5.924;2022-12-11T16:02:25;9.50;56.90
45537;DHT22;31262;51.978;5.924;2022-12-11T16:04:52;9.50;56.90
45537;DHT22;31262;51.978;5.924;2022-12-11T16:07:21;9.50;57.00
45537;DHT22;31262;51.978;5.924;2022-12-11T16:09:48;9.50;57.30
45537;DHT22;31262;51.978;5.924;2022-12-11T16:12:13;9.50;57.20
45537;DHT22;31262;51.978;5.924;2022-12-11T16:14:42;9.40;57.10
45537;DHT22;31262;51.978;5.924;2022-12-11T16:17:09;9.40;57.30
45537;DHT22;31262;51.978;5.924;2022-12-11T16:19:34;9.40;57.20
45537;DHT22;31262;51.978;5.924;2022-12-11T16:22:00;9.30;57.50
45537;DHT22;31262;51.978;5.924;2022-12-11T16:24:26;9.30;57.80
45537;DHT22;31262;51.978;5.924;2022-12-11T16:26:52;9.40;58.00
45537;DHT22;31262;51.978;5.924;2022-12-11T16:29:17;9.50;58.10
45537;DHT22;31262;51.978;5.924;2022-12-11T16:31:43;9.50;57.80
45537;DHT22;31262;51.978;5.924;2022-12-11T16:34:08;9.50;57.80
45537;DHT22;31262;51.978;5.924;2022-12-11T16:36:34;9.50;58.00
45537;DHT22;31262;51.978;5.924;2022-12-11T16:38:59;9.50;57.80
45537;DHT22;31262;51.978;5.924;2022-12-11T16:41:25;9.60;57.80
45537;DHT22;31262;51.978;5.924;2022-12-11T16:43:50;9.60;57.80
45537;DHT22;31262;51.978;5.924;2022-12-11T16:46:18;9.70;58.00
45537;DHT22;31262;51.978;5.924;2022-12-11T16:48:44;9.80;57.70
45537;DHT22;31262;51.978;5.924;2022-12-11T16:51:09;9.90;57.50
45537;DHT22;31262;51.978;5.924;2022-12-11T16:53:35;9.80;57.60
45537;DHT22;31262;51.978;5.924;2022-12-11T16:56:01;9.80;57.60
45537;DHT22;31262;51.978;5.924;2022-12-11T16:58:26;9.80;57.50
45537;DHT22;31262;51.978;5.924;2022-12-11T17:00:52;9.90;57.70
45537;DHT22;31262;51.978;5.924;2022-12-11T17:03:22;9.80;57.00
45537;DHT22;31262;51.978;5.924;2022-12-11T17:05:48;9.70;56.60
45537;DHT22;31262;51.978;5.924;2022-12-11T17:08:14;9.60;57.10
45537;DHT22;31262;51.978;5.924;2022-12-11T17:10:39;9.50;57.40
45537;DHT22;31262;51.978;5.924;2022-12-11T17:13:05;9.60;57.60
45537;DHT22;31262;51.978;5.924;2022-12-11T17:15:31;9.50;57.80